Time;durP1;ratioP1;P1;durP2;ratioP2;P2;SDS_P1;SDS_P2;PMS_P1;PMS_P2;Temp;Humidity;BMP_temperature;BMP_pressure;BME280_temperature;BME280_humidity;BME280_pressure;Samples;Min_cycle;Max_cycle;Signal;HPM_P1;HPM_P2
2022/04/15 00:01:20;;;;;;;4.87;3.10;;;;;10.30;101837.00;;;;4921998;28;20361;-69
2022/04/15 00:04:08;;;;;;;4.40;2.77;;;;;10.30;101830.00;;;;4921203;28;20732;-69
2022/04/15 00:06:54;;;;;;;4.47;2.53;;;;;10.30;101839.00;;;;4927620;28;20260;-69
2022/04/15 00:09:40;;;;;;;5.87;3.10;;;;;10.10;101843.00;;;;4927544;28;20239;-69
2022/04/15 00:12:29;;;;;;;4.93;3.23;;;;;10.20;101837.00;;;;4913352;28;20250;-70
2022/04/15 00:15:15;;;;;;;7.93;3.90;;;;;10.10;101837.00;;;;4911765;28;20288;-69
2022/04/15 00:18:01;;;;;;;4.43;3.03;;;;;10.10;101839.00;;;;4910908;28;20288;-69
2022/04/15 00:20:49;;;;;;;5.23;2.93;;;;;10.10;101837.00;;;;4910529;28;20244;-71
2022/04/15 00:23:36;;;;;;;6.83;3.47;;;;;10.00;101843.00;;;;4907664;29;20340;-70
2022/04/15 00:26:22;;;;;;;5.50;3.30;;;;;10.00;101845.00;;;;4922414;28;20735;-72
2022/04/15 00:29:08;;;;;;;5.20;3.40;;;;;10.00;101849.00;;;;4920658;28;20318;-69
2022/04/15 00:31:55;;;;;;;4.97;3.03;;;;;10.00;101827.00;;;;4911291;29;20243;-69
2022/04/15 00:34:41;;;;;;;7.10;3.77;;;;;9.80;101840.00;;;;4908151;29;20265;-70
2022/04/15 00:37:31;;;;;;;7.57;3.20;;;;;9.80;101837.00;;;;4908340;29;20867;-71
2022/04/15 00:40:17;;;;;;;4.90;3.10;;;;;9.70;101839.00;;;;4921269;28;20615;-70
2022/04/15 00:43:03;;;;;;;6.40;3.40;;;;;9.70;101823.00;;;;4919731;28;20781;-69
2022/04/15 00:45:50;;;;;;;5.23;3.90;;;;;9.70;101842.00;;;;4926641;28;20249;-70
2022/04/15 00:48:37;;;;;;;6.80;3.50;;;;;9.70;101840.00;;;;4924338;28;20239;-69
2022/04/15 00:51:24;;;;;;;7.60;3.47;;;;;9.70;101835.00;;;;4927583;28;20651;-71
2022/04/15 00:54:12;;;;;;;7.73;3.57;;;;;9.70;101840.00;;;;4922371;28;20233;-69
2022/04/15 00:57:01;;;;;;;7.00;3.83;;;;;9.60;101842.00;;;;4907897;28;20994;-72
2022/04/15 00:59:49;;;;;;;11.60;3.67;;;;;9.70;101840.00;;;;4913048;28;20245;-69
2022/04/15 01:02:36;;;;;;;9.63;3.67;;;;;9.60;101822.00;;;;4908306;29;20276;-70
2022/04/15 01:05:22;;;;;;;9.50;4.10;;;;;9.60;101851.00;;;;4921935;28;20358;-71
2022/04/15 01:08:10;;;;;;;7.43;3.90;;;;;9.60;101853.00;;;;4905463;29;20316;-71
2022/04/15 01:11:00;;;;;;;6.23;3.93;;;;;9.60;101854.00;;;;4906498;29;20341;-71
2022/04/15 01:13:47;;;;;;;6.07;3.60;;;;;9.50;101838.00;;;;4907873;29;20245;-71
2022/04/15 01:16:34;;;;;;;7.83;3.97;;;;;9.40;101854.00;;;;4922676;28;20238;-71
2022/04/15 01:19:20;;;;;;;7.67;3.57;;;;;9.50;101851.00;;;;4908515;29;20242;-70
2022/04/15 01:22:12;;;;;;;10.60;4.20;;;;;9.40;101855.00;;;;4915062;29;20239;-70
2022/04/15 01:24:59;;;;;;;6.67;3.97;;;;;9.40;101857.00;;;;4911382;29;20234;-71
2022/04/15 01:27:47;;;;;;;7.60;4.10;;;;;9.50;101870.00;;;;4913336;29;20651;-71
2022/04/15 01:30:34;;;;;;;6.73;4.00;;;;;9.40;101865.00;;;;4911867;29;20339;-70
2022/04/15 01:33:20;;;;;;;7.13;4.30;;;;;9.40;101864.00;;;;4911684;29;20229;-71
2022/04/15 01:36:11;;;;;;;8.53;4.23;;;;;9.40;101855.00;;;;4915349;28;20227;-70
2022/04/15 01:39:00;;;;;;;10.33;5.00;;;;;9.30;101862.00;;;;4930188;28;20239;-71
2022/04/15 01:41:47;;;;;;;8.83;4.07;;;;;9.30;101862.00;;;;4919431;29;20243;-70
2022/04/15 01:44:34;;;;;;;7.97;3.87;;;;;9.20;101859.00;;;;4912150;29;21019;-70
2022/04/15 01:47:20;;;;;;;8.23;4.27;;;;;9.20;101873.00;;;;4920751;28;20621;-69
2022/04/15 01:50:09;;;;;;;7.03;4.13;;;;;9.20;101862.00;;;;4922789;29;20326;-69
2022/04/15 01:52:56;;;;;;;8.67;4.10;;;;;9.30;101874.00;;;;4918198;28;20251;-67
2022/04/15 01:55:42;;;;;;;10.60;4.90;;;;;9.10;101871.00;;;;4910959;29;20445;-70
2022/04/15 01:58:30;;;;;;;7.63;4.30;;;;;9.20;101870.00;;;;4916173;29;20242;-71
2022/04/15 02:01:16;;;;;;;7.90;4.63;;;;;9.20;101876.00;;;;4912806;29;20239;-70
2022/04/15 02:04:03;;;;;;;8.00;4.43;;;;;9.00;101875.00;;;;4911219;29;20267;-70
2022/04/15 02:06:49;;;;;;;7.80;4.33;;;;;9.00;101873.00;;;;4913282;28;20240;-71
2022/04/15 02:09:35;;;;;;;8.17;4.30;;;;;9.00;101874.00;;;;4910880;29;20248;-70
2022/04/15 02:12:22;;;;;;;7.53;4.83;;;;;9.00;101882.00;;;;4911061;29;20897;-71
2022/04/15 02:15:10;;;;;;;6.50;4.10;;;;;8.90;101876.00;;;;4918595;28;20240;-69
2022/04/15 02:17:56;;;;;;;7.87;4.70;;;;;8.80;101878.00;;;;4911906;29;20230;-71
2022/04/15 02:20:42;;;;;;;10.43;4.40;;;;;8.80;101879.00;;;;4910980;29;20238;-70
2022/04/15 02:23:28;;;;;;;8.17;4.07;;;;;8.80;101889.00;;;;4910718;29;20282;-71
2022/04/15 02:26:15;;;;;;;9.13;4.90;;;;;8.70;101883.00;;;;4922583;28;20234;-71
2022/04/15 02:29:01;;;;;;;9.60;5.07;;;;;8.60;101881.00;;;;4924776;28;20290;-72
2022/04/15 02:31:49;;;;;;;8.90;4.93;;;;;8.50;101880.00;;;;4910094;29;20246;-71
2022/04/15 02:34:35;;;;;;;8.70;4.40;;;;;8.50;101884.00;;;;4909748;29;20242;-70
2022/04/15 02:37:21;;;;;;;7.80;4.63;;;;;8.50;101879.00;;;;4923105;28;20240;-69
2022/04/15 02:40:09;;;;;;;9.17;5.07;;;;;8.40;101890.00;;;;4920868;28;20246;-69
2022/04/15 02:42:55;;;;;;;8.23;4.33;;;;;8.30;101901.00;;;;4910237;29;20371;-69
2022/04/15 02:45:41;;;;;;;11.70;5.10;;;;;8.20;101894.00;;;;4910482;29;20254;-70
2022/04/15 02:48:29;;;;;;;8.20;5.13;;;;;8.30;101893.00;;;;4910075;29;20239;-71
2022/04/15 02:51:17;;;;;;;9.40;5.10;;;;;8.20;101897.00;;;;4910240;29;20369;-69
2022/04/15 02:54:03;;;;;;;9.63;5.50;;;;;8.30;101898.00;;;;4912312;29;20318;-70
2022/04/15 02:56:49;;;;;;;9.07;4.90;;;;;8.20;101891.00;;;;4910293;29;20306;-70
2022/04/15 02:59:36;;;;;;;13.17;4.90;;;;;8.10;101889.00;;;;4913568;29;20241;-70
2022/04/15 03:02:22;;;;;;;9.80;5.87;;;;;8.10;101893.00;;;;4922586;28;20230;-71
2022/04/15 03:05:10;;;;;;;9.37;5.33;;;;;8.10;101885.00;;;;4925352;28;20373;-70
2022/04/15 03:07:56;;;;;;;9.23;4.80;;;;;8.10;101891.00;;;;4908207;29;20266;-70
2022/04/15 03:10:43;;;;;;;8.17;4.93;;;;;7.90;101890.00;;;;4909853;29;20383;-70
2022/04/15 03:13:29;;;;;;;10.43;4.80;;;;;8.00;101854.00;;;;4922543;28;20232;-69
2022/04/15 03:16:21;;;;;;;10.43;5.83;;;;;7.90;101897.00;;;;4926206;28;20277;-70
2022/04/15 03:19:08;;;;;;;11.33;5.33;;;;;7.90;101900.00;;;;4911069;29;20237;-70
2022/04/15 03:21:56;;;;;;;8.77;4.73;;;;;7.90;101901.00;;;;4909886;29;20248;-70
2022/04/15 03:24:42;;;;;;;8.30;4.80;;;;;7.90;101906.00;;;;4909673;29;20277;-70
2022/04/15 03:27:28;;;;;;;11.03;5.33;;;;;7.80;101905.00;;;;4914695;28;20248;-69
2022/04/15 03:30:15;;;;;;;9.63;4.87;;;;;8.00;101905.00;;;;4920714;28;20249;-71
2022/04/15 03:33:01;;;;;;;8.50;4.53;;;;;8.10;101909.00;;;;4928253;28;20256;-66
2022/04/15 03:35:47;;;;;;;11.40;5.97;;;;;8.40;101914.00;;;;4928270;28;20332;-69
2022/04/15 03:38:35;;;;;;;13.50;6.17;;;;;8.60;101919.00;;;;4916754;28;20241;-71
2022/04/15 03:41:22;;;;;;;12.73;6.70;;;;;8.80;101914.00;;;;4912813;29;20232;-67
2022/04/15 03:44:10;;;;;;;11.87;6.37;;;;;9.00;101928.00;;;;4914825;29;20245;-69
2022/04/15 03:46:56;;;;;;;12.77;6.87;;;;;9.10;101922.00;;;;4912297;28;20761;-70
2022/04/15 03:49:42;;;;;;;17.03;6.87;;;;;9.10;101922.00;;;;4913160;29;20246;-70
2022/04/15 03:52:28;;;;;;;18.53;7.23;;;;;9.20;101917.00;;;;4912813;29;20233;-71
2022/04/15 03:55:17;;;;;;;12.20;6.90;;;;;9.30;101922.00;;;;4916651;28;20233;-70
2022/04/15 03:58:03;;;;;;;14.07;6.63;;;;;9.30;101921.00;;;;4914817;28;20237;-70
2022/04/15 04:00:49;;;;;;;13.70;7.07;;;;;9.40;101932.00;;;;4908634;29;20244;-70
2022/04/15 04:03:36;;;;;;;15.03;7.53;;;;;9.40;101928.00;;;;4922856;28;20247;-71
2022/04/15 04:06:22;;;;;;;14.47;6.97;;;;;9.40;101939.00;;;;4920742;28;20315;-70
2022/04/15 04:09:09;;;;;;;13.73;6.20;;;;;9.50;101932.00;;;;4927175;28;20382;-69
2022/04/15 04:11:56;;;;;;;18.03;7.17;;;;;9.40;101929.00;;;;4926379;28;20353;-71
2022/04/15 04:14:42;;;;;;;15.67;7.77;;;;;9.40;101927.00;;;;4908220;29;20228;-71
2022/04/15 04:17:29;;;;;;;13.53;6.67;;;;;9.50;101940.00;;;;4921726;28;20227;-70
2022/04/15 04:20:16;;;;;;;13.93;6.80;;;;;9.40;101931.00;;;;4914279;28;20248;-70
2022/04/15 04:23:02;;;;;;;12.23;6.80;;;;;9.50;101922.00;;;;4927391;28;20231;-69
2022/04/15 04:25:49;;;;;;;15.20;6.80;;;;;9.50;101943.00;;;;4927478;28;20368;-70
2022/04/15 04:28:37;;;;;;;14.70;7.13;;;;;9.40;101942.00;;;;4913666;29;20366;-70
2022/04/15 04:31:23;;;;;;;14.70;6.63;;;;;9.60;101951.00;;;;4920742;28;20227;-70
2022/04/15 04:34:10;;;;;;;12.30;6.13;;;;;9.50;101952.00;;;;4927332;28;20239;-68
2022/04/15 04:36:56;;;;;;;15.77;6.73;;;;;9.60;101957.00;;;;4926735;28;20252;-69
2022/04/15 04:39:42;;;;;;;19.60;7.07;;;;;9.60;101955.00;;;;4927466;28;20237;-70
2022/04/15 04:42:29;;;;;;;11.50;7.30;;;;;9.50;101953.00;;;;4914266;28;20638;-70
2022/04/15 04:45:17;;;;;;;11.17;6.43;;;;;9.50;101957.00;;;;4908524;29;20223;-71
2022/04/15 04:48:04;;;;;;;11.03;5.63;;;;;9.50;101962.00;;;;4908084;29;20236;-70
2022/04/15 04:50:50;;;;;;;12.27;6.10;;;;;9.50;101966.00;;;;4916348;28;20248;-69
2022/04/15 04:53:37;;;;;;;10.07;5.70;;;;;9.50;101974.00;;;;4926934;28;20597;-70
2022/04/15 04:56:23;;;;;;;12.27;6.17;;;;;9.40;101969.00;;;;4927093;28;21014;-71
2022/04/15 04:59:09;;;;;;;10.83;5.47;;;;;9.40;101974.00;;;;4908524;29;20343;-72
2022/04/15 05:01:57;;;;;;;13.60;5.60;;;;;9.30;101973.00;;;;4924172;28;20242;-71
2022/04/15 05:04:43;;;;;;;8.83;5.03;;;;;9.30;101982.00;;;;4924734;28;20229;-71
2022/04/15 05:07:30;;;;;;;10.23;5.00;;;;;9.30;101994.00;;;;4908275;29;20358;-70
2022/04/15 05:10:16;;;;;;;11.03;5.87;;;;;9.20;101993.00;;;;4907767;29;20243;-70
2022/04/15 05:13:03;;;;;;;10.67;5.43;;;;;9.30;101994.00;;;;4925022;28;20230;-71
2022/04/15 05:15:50;;;;;;;11.63;5.70;;;;;9.30;101997.00;;;;4919548;29;20244;-71
2022/04/15 05:18:37;;;;;;;9.33;5.57;;;;;9.20;102004.00;;;;4920583;28;20246;-71
2022/04/15 05:21:24;;;;;;;7.97;5.03;;;;;9.30;102011.00;;;;4918286;28;20313;-72
2022/04/15 05:24:10;;;;;;;9.77;5.23;;;;;9.30;102013.00;;;;4923648;28;20314;-72
2022/04/15 05:26:57;;;;;;;9.27;5.10;;;;;9.30;102027.00;;;;4907317;29;20477;-71
2022/04/15 05:29:43;;;;;;;9.00;5.57;;;;;9.30;102019.00;;;;4911577;28;20269;-70
2022/04/15 05:32:30;;;;;;;9.47;5.47;;;;;9.40;102021.00;;;;4913426;28;20229;-70
2022/04/15 05:35:17;;;;;;;11.70;5.13;;;;;9.50;102025.00;;;;4912873;28;20368;-71
2022/04/15 05:38:07;;;;;;;10.33;5.53;;;;;9.50;102024.00;;;;4909873;29;20255;-70
2022/04/15 05:40:53;;;;;;;8.90;5.20;;;;;9.60;102033.00;;;;4916110;28;20327;-70
2022/04/15 05:43:39;;;;;;;9.17;4.80;;;;;9.50;102039.00;;;;4921536;28;20263;-72
2022/04/15 05:46:27;;;;;;;11.00;5.47;;;;;9.40;102046.00;;;;4907552;29;20238;-70
2022/04/15 05:49:15;;;;;;;12.67;4.50;;;;;9.60;102038.00;;;;4910639;28;20355;-71
2022/04/15 05:52:03;;;;;;;10.50;5.40;;;;;9.60;102052.00;;;;4913016;28;20240;-69
2022/04/15 05:54:49;;;;;;;9.47;4.60;;;;;9.50;102043.00;;;;4912094;28;20373;-70
2022/04/15 05:57:35;;;;;;;7.80;3.87;;;;;9.70;102051.00;;;;4910205;28;20721;-71
2022/04/15 06:00:22;;;;;;;8.07;4.77;;;;;9.70;102056.00;;;;4919509;28;20365;-71
2022/04/15 06:03:08;;;;;;;5.87;3.93;;;;;9.70;102061.00;;;;4914713;28;20248;-70
2022/04/15 06:05:55;;;;;;;7.73;4.30;;;;;9.80;102029.00;;;;4909616;28;20231;-71
2022/04/15 06:08:43;;;;;;;6.80;3.90;;;;;9.80;102061.00;;;;4921939;28;20244;-70
2022/04/15 06:11:30;;;;;;;6.70;3.93;;;;;9.80;102065.00;;;;4910609;29;20916;-70
2022/04/15 06:14:17;;;;;;;5.93;3.63;;;;;9.90;102066.00;;;;4915903;28;20378;-70
2022/04/15 06:17:04;;;;;;;6.73;4.17;;;;;9.80;102069.00;;;;4910527;29;20231;-70
2022/04/15 06:19:50;;;;;;;7.10;3.73;;;;;10.00;102074.00;;;;4920101;28;20747;-71
2022/04/15 06:22:36;;;;;;;5.47;3.77;;;;;10.10;102075.00;;;;4929568;28;20242;-69
2022/04/15 06:25:24;;;;;;;8.47;4.03;;;;;10.10;102070.00;;;;4929391;28;20415;-70
2022/04/15 06:28:11;;;;;;;6.20;3.80;;;;;10.20;102056.00;;;;4922606;28;20240;-70
2022/04/15 06:30:58;;;;;;;9.60;3.67;;;;;10.30;102084.00;;;;4929897;28;20314;-70
2022/04/15 06:33:44;;;;;;;5.03;3.57;;;;;10.30;102079.00;;;;4924546;28;20318;-69
2022/04/15 06:36:31;;;;;;;10.60;3.97;;;;;10.30;102096.00;;;;4922945;28;20260;-71
2022/04/15 06:39:17;;;;;;;5.57;3.70;;;;;10.30;102095.00;;;;4929563;28;20270;-70
2022/04/15 06:42:05;;;;;;;6.97;3.80;;;;;10.40;102085.00;;;;4929809;28;20229;-69
2022/04/15 06:44:51;;;;;;;5.93;3.77;;;;;10.40;102094.00;;;;4929370;28;20315;-70
2022/04/15 06:47:38;;;;;;;5.37;3.63;;;;;10.40;102095.00;;;;4923166;28;20291;-70
2022/04/15 06:50:25;;;;;;;5.40;3.60;;;;;10.40;102103.00;;;;4928831;28;20240;-70
2022/04/15 06:53:11;;;;;;;4.07;2.97;;;;;10.40;102106.00;;;;4919552;28;20243;-70
2022/04/15 06:55:57;;;;;;;7.83;3.40;;;;;10.40;102092.00;;;;4910100;29;20245;-70
2022/04/15 06:58:45;;;;;;;6.97;3.27;;;;;10.50;102108.00;;;;4914966;28;20236;-69
2022/04/15 07:01:32;;;;;;;6.60;4.50;;;;;10.40;102110.00;;;;4917098;28;20338;-69
2022/04/15 07:04:20;;;;;;;8.53;4.33;;;;;10.40;102111.00;;;;4915326;28;20233;-69
2022/04/15 07:07:07;;;;;;;5.23;3.13;;;;;10.40;102118.00;;;;4913741;28;20236;-69
2022/04/15 07:09:53;;;;;;;5.17;3.43;;;;;10.20;102110.00;;;;4911048;28;20248;-69
2022/04/15 07:12:40;;;;;;;5.17;3.50;;;;;10.30;102121.00;;;;4917253;28;20233;-69
2022/04/15 07:15:27;;;;;;;8.47;3.63;;;;;10.20;102125.00;;;;4914893;28;20376;-69
2022/04/15 07:18:13;;;;;;;5.93;3.80;;;;;10.20;102128.00;;;;4920997;28;20260;-69
2022/04/15 07:21:00;;;;;;;5.07;3.63;;;;;10.20;102127.00;;;;4914097;28;20630;-68
2022/04/15 07:23:46;;;;;;;7.97;4.37;;;;;10.20;102130.00;;;;4911561;28;20266;-70
2022/04/15 07:26:33;;;;;;;10.43;3.97;;;;;10.20;102138.00;;;;4913225;28;20335;-71
2022/04/15 07:29:20;;;;;;;8.70;4.27;;;;;10.10;102141.00;;;;4927886;28;20243;-69
2022/04/15 07:32:09;;;;;;;8.90;4.23;;;;;10.00;102152.00;;;;4928242;28;20974;-68
2022/04/15 07:34:55;;;;;;;7.63;3.93;;;;;10.10;102155.00;;;;4919119;28;20244;-69
2022/04/15 07:37:41;;;;;;;5.70;3.63;;;;;10.00;102154.00;;;;4914406;28;20591;-70
2022/04/15 07:40:29;;;;;;;6.57;4.20;;;;;9.90;102150.00;;;;4911456;29;20240;-70
2022/04/15 07:43:15;;;;;;;6.27;3.90;;;;;10.00;102154.00;;;;4908698;29;20783;-69
2022/04/15 07:46:02;;;;;;;9.07;4.57;;;;;10.00;102151.00;;;;4909536;29;20279;-69
2022/04/15 07:48:49;;;;;;;9.80;4.80;;;;;10.10;102156.00;;;;4925138;28;20248;-68
2022/04/15 07:51:37;;;;;;;5.63;3.43;;;;;9.90;102154.00;;;;4909503;29;20328;-68
2022/04/15 07:54:23;;;;;;;6.97;4.20;;;;;9.90;102156.00;;;;4908199;29;20361;-69
2022/04/15 07:57:09;;;;;;;6.20;3.43;;;;;9.80;102157.00;;;;4908490;29;20315;-68
2022/04/15 07:59:56;;;;;;;6.30;3.57;;;;;9.90;102163.00;;;;4909178;29;20244;-70
2022/04/15 08:02:42;;;;;;;4.97;3.80;;;;;9.90;102154.00;;;;4921948;28;21006;-67
2022/04/15 08:05:30;;;;;;;7.07;4.23;;;;;10.00;102160.00;;;;4917983;28;20240;-69
2022/04/15 08:08:16;;;;;;;7.23;3.90;;;;;10.10;102161.00;;;;4919570;28;20351;-68
2022/04/15 08:11:02;;;;;;;6.77;3.80;;;;;10.20;102149.00;;;;4914398;28;20244;-68
2022/04/15 08:13:48;;;;;;;13.07;4.03;;;;;10.00;102168.00;;;;4917751;28;20228;-69
2022/04/15 08:16:34;;;;;;;6.47;3.60;;;;;10.00;102165.00;;;;4914876;28;20227;-65
2022/04/15 08:19:21;;;;;;;6.57;4.00;;;;;10.10;102169.00;;;;4911231;28;20349;-67
2022/04/15 08:22:09;;;;;;;7.03;4.43;;;;;10.00;102174.00;;;;4914486;28;20309;-68
2022/04/15 08:24:56;;;;;;;7.23;4.23;;;;;10.20;102167.00;;;;4923057;28;20267;-68
2022/04/15 08:27:42;;;;;;;9.70;4.13;;;;;10.20;102161.00;;;;4908296;29;20323;-67
2022/04/15 08:30:33;;;;;;;8.97;4.73;;;;;10.20;102170.00;;;;4908200;29;20314;-64
2022/04/15 08:33:20;;;;;;;8.37;4.50;;;;;10.30;102175.00;;;;4909897;29;20237;-70
2022/04/15 08:36:07;;;;;;;8.67;4.33;;;;;10.40;102174.00;;;;4908134;29;20793;-66
2022/04/15 08:38:55;;;;;;;8.50;4.83;;;;;10.50;102171.00;;;;4913375;28;20276;-70
2022/04/15 08:41:42;;;;;;;6.43;4.30;;;;;10.50;102174.00;;;;4920813;28;20236;-66
2022/04/15 08:44:31;;;;;;;8.93;4.47;;;;;10.60;102169.00;;;;4908675;28;20240;-69
2022/04/15 08:47:18;;;;;;;8.20;5.07;;;;;10.70;102176.00;;;;4907699;29;20244;-69
2022/04/15 08:50:05;;;;;;;10.07;5.17;;;;;10.90;102172.00;;;;4913641;28;20252;-70
2022/04/15 08:52:53;;;;;;;10.93;5.13;;;;;10.90;102182.00;;;;4908159;29;20374;-68
2022/04/15 08:55:41;;;;;;;7.67;4.40;;;;;10.80;102174.00;;;;4907981;29;20235;-71
2022/04/15 08:58:27;;;;;;;7.13;3.63;;;;;10.90;102184.00;;;;4907310;29;20289;-70
2022/04/15 09:01:14;;;;;;;9.57;4.37;;;;;10.90;102183.00;;;;4909580;29;20305;-69
2022/04/15 09:04:01;;;;;;;5.30;3.90;;;;;10.80;102162.00;;;;4910659;28;20227;-69
2022/04/15 09:06:54;;;;;;;5.60;3.53;;;;;10.80;102188.00;;;;4908017;29;20352;-69
2022/04/15 09:09:41;;;;;;;9.67;4.30;;;;;10.90;102187.00;;;;4908034;29;20241;-69
2022/04/15 09:12:30;;;;;;;6.73;3.73;;;;;10.90;102193.00;;;;4910493;29;20312;-69
2022/04/15 09:15:17;;;;;;;8.17;4.43;;;;;11.00;102186.00;;;;4925672;28;20239;-68
2022/04/15 09:18:04;;;;;;;10.10;5.17;;;;;10.90;102189.00;;;;4909801;29;20292;-69
2022/04/15 09:20:50;;;;;;;6.53;4.43;;;;;11.00;102194.00;;;;4909772;28;20819;-70
2022/04/15 09:23:37;;;;;;;11.50;5.17;;;;;11.20;102194.00;;;;4910981;29;20233;-67
2022/04/15 09:26:24;;;;;;;12.70;5.43;;;;;11.10;102197.00;;;;4912277;29;20936;-68
2022/04/15 09:29:12;;;;;;;7.97;4.47;;;;;11.20;102203.00;;;;4912582;28;20236;-66
2022/04/15 09:32:06;;;;;;;5.57;4.00;;;;;11.30;102209.00;;;;4916523;28;20243;-68
2022/04/15 09:34:56;;;;;;;7.40;3.70;;;;;11.30;102204.00;;;;4907692;29;20245;-69
2022/04/15 09:37:44;;;;;;;7.33;3.93;;;;;11.30;102211.00;;;;4907577;29;20881;-66
2022/04/15 09:40:32;;;;;;;7.33;4.10;;;;;11.20;102211.00;;;;4907086;29;20237;-67
2022/04/15 09:43:20;;;;;;;7.87;4.23;;;;;11.30;102216.00;;;;4908571;29;20863;-68
2022/04/15 09:46:10;;;;;;;10.30;4.60;;;;;11.40;102214.00;;;;4914437;29;20724;-66
2022/04/15 09:49:01;;;;;;;7.77;4.47;;;;;11.30;102217.00;;;;4914436;29;20344;-68
2022/04/15 09:51:51;;;;;;;6.47;4.30;;;;;11.10;102221.00;;;;4914624;29;20240;-68
2022/04/15 09:54:40;;;;;;;8.40;4.43;;;;;11.30;102213.00;;;;4909837;29;20258;-66
2022/04/15 09:57:33;;;;;;;8.93;4.03;;;;;11.50;102216.00;;;;4912206;28;20236;-68
2022/04/15 10:00:20;;;;;;;6.70;4.00;;;;;11.40;102206.00;;;;4916116;28;20240;-69
2022/04/15 10:03:09;;;;;;;6.10;3.93;;;;;11.40;102226.00;;;;4926187;28;20312;-70
2022/04/15 10:05:57;;;;;;;9.07;4.43;;;;;11.40;102229.00;;;;4916633;28;20301;-70
2022/04/15 10:08:43;;;;;;;8.93;4.97;;;;;11.40;102215.00;;;;4920873;28;20253;-69
2022/04/15 10:11:35;;;;;;;6.60;4.10;;;;;11.30;102224.00;;;;4913933;28;20253;-69
2022/04/15 10:14:21;;;;;;;7.63;4.30;;;;;11.40;102217.00;;;;4928495;28;20260;-69
2022/04/15 10:17:08;;;;;;;7.77;4.63;;;;;11.50;102227.00;;;;4910238;29;20943;-70
2022/04/15 10:19:56;;;;;;;10.00;4.97;;;;;11.40;102219.00;;;;4929896;28;20267;-70
2022/04/15 10:22:43;;;;;;;7.50;4.13;;;;;11.60;102205.00;;;;4925938;28;20237;-70
2022/04/15 10:25:30;;;;;;;7.40;4.57;;;;;11.70;102222.00;;;;4927303;28;20742;-69
2022/04/15 10:28:18;;;;;;;7.13;4.30;;;;;11.70;102213.00;;;;4928955;28;20299;-68
2022/04/15 10:31:07;;;;;;;9.07;4.93;;;;;11.80;102223.00;;;;4929897;28;20280;-68
2022/04/15 10:34:09;;;;;;;7.63;4.10;;;;;11.90;102209.00;;;;4923887;28;20237;-69
2022/04/15 10:36:56;;;;;;;7.87;4.17;;;;;12.10;102235.00;;;;4923802;28;20313;-68
2022/04/15 10:39:47;;;;;;;6.37;4.33;;;;;12.10;102219.00;;;;4919662;28;20236;-71
2022/04/15 10:42:34;;;;;;;6.63;3.93;;;;;11.90;102222.00;;;;4926453;28;20232;-68
2022/04/15 10:45:28;;;;;;;6.00;4.20;;;;;11.70;102224.00;;;;4926733;28;20828;-69
2022/04/15 10:48:28;;;;;;;7.43;4.50;;;;;11.80;102226.00;;;;4926836;28;20749;-69
2022/04/15 10:51:23;;;;;;;7.67;4.73;;;;;12.00;102226.00;;;;4923484;28;20295;-69
2022/04/15 10:54:31;;;;;;;8.53;4.53;;;;;12.00;102231.00;;;;4915645;28;20229;-69
2022/04/15 10:57:19;;;;;;;10.87;4.40;;;;;12.30;102232.00;;;;4922400;28;20244;-70
2022/04/15 11:03:21;;;;;;;7.17;4.77;;;;;12.40;102219.00;;;;4925478;28;20255;-69
2022/04/15 11:06:09;;;;;;;9.13;5.57;;;;;12.40;102224.00;;;;4928973;28;20365;-69
2022/04/15 11:09:16;;;;;;;6.67;4.53;;;;;12.50;102229.00;;;;4925377;28;20768;-69
2022/04/15 11:12:06;;;;;;;7.57;4.70;;;;;12.90;102225.00;;;;4925488;28;20297;-70
2022/04/15 11:14:52;;;;;;;6.40;3.90;;;;;12.80;102225.00;;;;4919941;28;20365;-69
2022/04/15 11:17:39;;;;;;;7.37;4.10;;;;;12.80;102234.00;;;;4927490;28;20228;-68
2022/04/15 11:20:28;;;;;;;7.60;4.30;;;;;12.60;102234.00;;;;4918756;28;20271;-69
2022/04/15 11:23:14;;;;;;;7.07;4.37;;;;;12.90;102232.00;;;;4924906;28;20248;-69
2022/04/15 11:26:01;;;;;;;7.07;4.10;;;;;12.60;102231.00;;;;4920634;28;20232;-68
2022/04/15 11:28:51;;;;;;;6.87;4.43;;;;;12.70;102226.00;;;;4911948;29;20249;-69
2022/04/15 11:31:39;;;;;;;4.53;3.17;;;;;12.80;102225.00;;;;4912861;28;20328;-69
2022/04/15 11:34:26;;;;;;;5.63;3.70;;;;;12.70;102232.00;;;;4913860;28;20309;-67
2022/04/15 11:37:12;;;;;;;5.20;3.77;;;;;12.70;102233.00;;;;4914091;28;20229;-68
2022/04/15 11:39:59;;;;;;;7.27;3.90;;;;;12.60;102233.00;;;;4909764;29;20712;-69
2022/04/15 11:42:46;;;;;;;6.83;4.03;;;;;12.90;102231.00;;;;4910469;29;20373;-70
2022/04/15 11:45:36;;;;;;;5.00;3.57;;;;;12.90;102229.00;;;;4912831;29;20257;-68
2022/04/15 11:48:24;;;;;;;5.27;3.93;;;;;12.80;102234.00;;;;4911868;28;20847;-69
2022/04/15 11:51:10;;;;;;;6.77;4.23;;;;;12.70;102233.00;;;;4910017;29;20237;-68
2022/04/15 11:53:59;;;;;;;6.23;3.40;;;;;12.80;102229.00;;;;4915965;28;20361;-67
2022/04/15 11:56:45;;;;;;;6.10;3.60;;;;;12.80;102230.00;;;;4916501;28;20306;-68
2022/04/15 11:59:37;;;;;;;5.73;3.47;;;;;13.00;102239.00;;;;4918236;28;20285;-67
2022/04/15 12:02:25;;;;;;;5.80;3.70;;;;;13.00;102235.00;;;;4927718;28;20304;-70
2022/04/15 12:05:11;;;;;;;6.27;3.90;;;;;12.90;102243.00;;;;4926452;28;20742;-69
2022/04/15 12:07:58;;;;;;;6.17;3.47;;;;;12.80;102238.00;;;;4920832;28;20239;-68
2022/04/15 12:10:46;;;;;;;6.00;3.47;;;;;12.90;102237.00;;;;4926797;28;20710;-70
2022/04/15 12:13:34;;;;;;;5.30;3.70;;;;;12.80;102246.00;;;;4920329;28;20248;-69
2022/04/15 12:16:21;;;;;;;6.37;3.93;;;;;12.90;102241.00;;;;4910799;29;20253;-68
2022/04/15 12:19:09;;;;;;;6.37;3.70;;;;;13.20;102240.00;;;;4915891;28;20236;-66
2022/04/15 12:21:55;;;;;;;6.20;3.70;;;;;13.00;102244.00;;;;4910666;29;20236;-69
2022/04/15 12:24:42;;;;;;;5.00;3.77;;;;;13.20;102242.00;;;;4913549;28;20256;-70
2022/04/15 12:27:34;;;;;;;6.07;3.80;;;;;13.00;102244.00;;;;4912117;28;20236;-69
2022/04/15 12:30:35;;;;;;;5.47;4.20;;;;;13.00;102245.00;;;;4909341;28;20238;-70
2022/04/15 12:33:23;;;;;;;6.47;3.83;;;;;12.90;102249.00;;;;4910591;29;20237;-71
2022/04/15 12:36:10;;;;;;;6.47;4.10;;;;;13.00;102247.00;;;;4916404;28;20236;-69
2022/04/15 12:38:58;;;;;;;7.30;4.30;;;;;13.20;102252.00;;;;4908378;28;20333;-70
2022/04/15 12:41:46;;;;;;;8.17;4.90;;;;;13.20;102259.00;;;;4907657;29;20237;-69
2022/04/15 12:44:32;;;;;;;8.07;4.33;;;;;13.20;102259.00;;;;4914383;28;20637;-70
2022/04/15 12:47:19;;;;;;;6.77;4.17;;;;;13.00;102247.00;;;;4911193;28;20286;-70
2022/04/15 12:50:20;;;;;;;10.20;4.90;;;;;13.30;102243.00;;;;4915214;28;20323;-67
2022/04/15 12:53:16;;;;;;;8.67;4.80;;;;;13.30;102249.00;;;;4908053;29;20244;-68
2022/04/15 12:56:13;;;;;;;8.90;4.60;;;;;13.40;102243.00;;;;4916290;29;20256;-71
2022/04/15 12:59:01;;;;;;;6.50;4.53;;;;;13.40;102246.00;;;;4920592;28;20261;-69
2022/04/15 13:01:47;;;;;;;6.90;4.73;;;;;13.50;102242.00;;;;4923950;28;20840;-67
2022/04/15 13:04:33;;;;;;;8.00;4.67;;;;;13.40;102248.00;;;;4927025;28;20372;-66
2022/04/15 13:07:19;;;;;;;9.33;5.47;;;;;13.50;102240.00;;;;4911676;28;20236;-68
2022/04/15 13:10:11;;;;;;;9.57;4.60;;;;;13.80;102246.00;;;;4921506;28;20599;-69
2022/04/15 13:13:20;;;;;;;9.50;4.90;;;;;13.90;102251.00;;;;4909104;29;20241;-69
2022/04/15 13:16:06;;;;;;;11.73;5.57;;;;;13.90;102245.00;;;;4922831;28;20783;-68
2022/04/15 13:18:54;;;;;;;8.83;4.87;;;;;14.20;102243.00;;;;4921057;28;20357;-68
2022/04/15 13:21:40;;;;;;;6.70;4.37;;;;;14.60;102237.00;;;;4919384;29;20236;-70
2022/04/15 13:24:27;;;;;;;6.70;4.60;;;;;14.60;102243.00;;;;4910976;29;20746;-69
2022/04/15 13:27:14;;;;;;;7.47;4.60;;;;;14.50;102245.00;;;;4925277;28;20843;-69
2022/04/15 13:30:00;;;;;;;7.60;4.80;;;;;14.50;102243.00;;;;4930712;28;20240;-69
2022/04/15 13:32:46;;;;;;;7.93;4.63;;;;;14.20;102240.00;;;;4930377;28;20399;-69
2022/04/15 13:35:33;;;;;;;7.97;4.77;;;;;14.10;102241.00;;;;4930275;28;20249;-69
2022/04/15 13:38:19;;;;;;;7.50;5.00;;;;;14.00;102246.00;;;;4930182;28;20240;-69
2022/04/15 13:41:06;;;;;;;8.03;4.83;;;;;13.80;102246.00;;;;4920588;28;20731;-70
2022/04/15 13:43:54;;;;;;;6.90;4.70;;;;;13.90;102252.00;;;;4911268;29;20229;-70
2022/04/15 13:46:40;;;;;;;9.13;5.17;;;;;14.00;102247.00;;;;4914040;28;20374;-71
2022/04/15 13:49:31;;;;;;;7.23;4.53;;;;;13.80;102241.00;;;;4912680;28;20234;-70
2022/04/15 13:58:26;;;;;;;8.70;4.87;;;;;13.90;102248.00;;;;4922391;28;20596;-71
2022/04/15 14:01:24;;;;;;;10.03;4.70;;;;;13.90;102243.00;;;;4916467;28;20319;-73